sensor_id;sensor_type;location;lat;lon;timestamp;P1;durP1;ratioP1;P2;durP2;ratioP2
21543;SDS011;10933;50.754;11.508;2022-08-23T00:01:16;7.32;;;6.72;;
21543;SDS011;10933;50.754;11.508;2022-08-23T00:03:47;7.60;;;6.97;;
21543;SDS011;10933;50.754;11.508;2022-08-23T00:06:14;6.82;;;6.53;;
21543;SDS011;10933;50.754;11.508;2022-08-23T00:08:41;6.93;;;6.53;;
21543;SDS011;10933;50.754;11.508;2022-08-23T00:13:59;7.55;;;7.15;;
21543;SDS011;10933;50.754;11.508;2022-08-23T00:16:27;7.78;;;7.10;;
21543;SDS011;10933;50.754;11.508;2022-08-23T00:18:54;6.82;;;6.53;;
21543;SDS011;10933;50.754;11.508;2022-08-23T00:21:21;7.55;;;6.97;;
21543;SDS011;10933;50.754;11.508;2022-08-23T00:23:47;7.38;;;6.90;;
21543;SDS011;10933;50.754;11.508;2022-08-23T00:26:13;8.15;;;7.75;;
21543;SDS011;10933;50.754;11.508;2022-08-23T00:28:39;7.35;;;6.93;;
21543;SDS011;10933;50.754;11.508;2022-08-23T00:31:06;7.63;;;7.22;;
21543;SDS011;10933;50.754;11.508;2022-08-23T00:33:32;7.75;;;7.15;;
21543;SDS011;10933;50.754;11.508;2022-08-23T00:35:59;7.90;;;7.50;;
21543;SDS011;10933;50.754;11.508;2022-08-23T00:38:25;8.30;;;7.82;;
21543;SDS011;10933;50.754;11.508;2022-08-23T00:40:51;8.18;;;7.63;;
21543;SDS011;10933;50.754;11.508;2022-08-23T00:43:21;8.40;;;7.53;;
21543;SDS011;10933;50.754;11.508;2022-08-23T00:49:15;7.95;;;7.55;;
21543;SDS011;10933;50.754;11.508;2022-08-23T00:54:26;8.93;;;8.13;;
21543;SDS011;10933;50.754;11.508;2022-08-23T00:56:54;9.48;;;8.73;;
21543;SDS011;10933;50.754;11.508;2022-08-23T00:59:22;9.23;;;8.77;;
21543;SDS011;10933;50.754;11.508;2022-08-23T01:01:49;8.55;;;8.15;;
21543;SDS011;10933;50.754;11.508;2022-08-23T01:04:16;9.43;;;8.90;;
21543;SDS011;10933;50.754;11.508;2022-08-23T01:07:02;8.90;;;8.50;;
21543;SDS011;10933;50.754;11.508;2022-08-23T01:09:34;9.40;;;8.75;;
21543;SDS011;10933;50.754;11.508;2022-08-23T01:12:27;11.17;;;10.50;;
21543;SDS011;10933;50.754;11.508;2022-08-23T01:14:58;9.80;;;9.30;;
21543;SDS011;10933;50.754;11.508;2022-08-23T01:17:31;9.73;;;8.85;;
21543;SDS011;10933;50.754;11.508;2022-08-23T01:20:13;9.07;;;8.48;;
21543;SDS011;10933;50.754;11.508;2022-08-23T01:22:56;9.15;;;8.75;;
21543;SDS011;10933;50.754;11.508;2022-08-23T01:25:29;9.38;;;8.75;;
21543;SDS011;10933;50.754;11.508;2022-08-23T01:27:57;9.18;;;8.57;;
21543;SDS011;10933;50.754;11.508;2022-08-23T01:30:25;8.55;;;8.05;;
21543;SDS011;10933;50.754;11.508;2022-08-23T01:33:00;8.32;;;7.85;;
21543;SDS011;10933;50.754;11.508;2022-08-23T01:38:11;8.47;;;8.03;;
21543;SDS011;10933;50.754;11.508;2022-08-23T01:40:38;9.37;;;8.87;;
21543;SDS011;10933;50.754;11.508;2022-08-23T01:43:05;8.65;;;8.25;;
21543;SDS011;10933;50.754;11.508;2022-08-23T01:45:33;8.95;;;8.15;;
21543;SDS011;10933;50.754;11.508;2022-08-23T01:48:00;9.13;;;8.73;;
21543;SDS011;10933;50.754;11.508;2022-08-23T01:50:26;8.97;;;8.47;;
21543;SDS011;10933;50.754;11.508;2022-08-23T01:52:53;9.88;;;9.27;;
21543;SDS011;10933;50.754;11.508;2022-08-23T01:55:20;9.13;;;8.63;;
21543;SDS011;10933;50.754;11.508;2022-08-23T01:57:48;9.10;;;8.70;;
21543;SDS011;10933;50.754;11.508;2022-08-23T02:00:18;10.17;;;9.67;;
21543;SDS011;10933;50.754;11.508;2022-08-23T02:02:47;9.93;;;9.23;;
21543;SDS011;10933;50.754;11.508;2022-08-23T02:05:15;9.53;;;9.13;;
21543;SDS011;10933;50.754;11.508;2022-08-23T02:07:41;10.03;;;9.30;;
21543;SDS011;10933;50.754;11.508;2022-08-23T02:10:07;10.77;;;10.07;;
21543;SDS011;10933;50.754;11.508;2022-08-23T02:12:37;10.10;;;9.43;;
21543;SDS011;10933;50.754;11.508;2022-08-23T02:15:04;9.90;;;9.47;;
21543;SDS011;10933;50.754;11.508;2022-08-23T02:17:31;8.83;;;8.43;;
21543;SDS011;10933;50.754;11.508;2022-08-23T02:19:57;9.90;;;9.40;;
21543;SDS011;10933;50.754;11.508;2022-08-23T02:22:25;8.93;;;8.53;;
21543;SDS011;10933;50.754;11.508;2022-08-23T02:24:51;10.77;;;10.00;;
21543;SDS011;10933;50.754;11.508;2022-08-23T02:27:17;10.13;;;9.63;;
21543;SDS011;10933;50.754;11.508;2022-08-23T02:29:45;10.50;;;10.00;;
21543;SDS011;10933;50.754;11.508;2022-08-23T02:32:12;10.37;;;9.50;;
21543;SDS011;10933;50.754;11.508;2022-08-23T02:34:40;10.30;;;9.80;;
21543;SDS011;10933;50.754;11.508;2022-08-23T02:37:08;10.43;;;9.83;;
21543;SDS011;10933;50.754;11.508;2022-08-23T02:39:36;10.93;;;10.03;;
21543;SDS011;10933;50.754;11.508;2022-08-23T02:42:03;9.83;;;9.23;;
21543;SDS011;10933;50.754;11.508;2022-08-23T02:44:30;10.30;;;9.73;;
21543;SDS011;10933;50.754;11.508;2022-08-23T02:46:58;9.67;;;9.17;;
21543;SDS011;10933;50.754;11.508;2022-08-23T02:49:26;9.90;;;9.40;;
21543;SDS011;10933;50.754;11.508;2022-08-23T02:51:53;8.90;;;8.50;;
21543;SDS011;10933;50.754;11.508;2022-08-23T02:54:19;8.90;;;8.50;;
21543;SDS011;10933;50.754;11.508;2022-08-23T02:56:45;10.30;;;9.40;;
21543;SDS011;10933;50.754;11.508;2022-08-23T02:59:12;9.40;;;8.80;;
21543;SDS011;10933;50.754;11.508;2022-08-23T03:01:39;8.43;;;8.03;;
21543;SDS011;10933;50.754;11.508;2022-08-23T03:04:06;9.07;;;8.60;;
21543;SDS011;10933;50.754;11.508;2022-08-23T03:06:34;9.70;;;9.10;;
21543;SDS011;10933;50.754;11.508;2022-08-23T03:09:02;10.20;;;9.70;;
21543;SDS011;10933;50.754;11.508;2022-08-23T03:11:29;10.00;;;9.50;;
21543;SDS011;10933;50.754;11.508;2022-08-23T03:13:56;10.03;;;9.33;;
21543;SDS011;10933;50.754;11.508;2022-08-23T03:16:22;9.53;;;9.07;;
21543;SDS011;10933;50.754;11.508;2022-08-23T03:18:49;10.50;;;9.70;;
21543;SDS011;10933;50.754;11.508;2022-08-23T03:21:16;11.07;;;10.17;;
21543;SDS011;10933;50.754;11.508;2022-08-23T03:23:43;10.63;;;10.03;;
21543;SDS011;10933;50.754;11.508;2022-08-23T03:26:10;9.43;;;8.93;;
21543;SDS011;10933;50.754;11.508;2022-08-23T03:28:38;10.43;;;9.57;;
21543;SDS011;10933;50.754;11.508;2022-08-23T03:31:06;10.87;;;10.07;;
21543;SDS011;10933;50.754;11.508;2022-08-23T03:33:33;9.97;;;9.40;;
21543;SDS011;10933;50.754;11.508;2022-08-23T03:36:00;9.90;;;9.27;;
21543;SDS011;10933;50.754;11.508;2022-08-23T03:38:28;9.70;;;9.30;;
21543;SDS011;10933;50.754;11.508;2022-08-23T03:40:54;9.30;;;8.80;;
21543;SDS011;10933;50.754;11.508;2022-08-23T03:43:21;9.30;;;8.63;;
21543;SDS011;10933;50.754;11.508;2022-08-23T03:45:47;9.20;;;8.70;;
21543;SDS011;10933;50.754;11.508;2022-08-23T03:48:13;10.03;;;9.13;;
21543;SDS011;10933;50.754;11.508;2022-08-23T03:50:40;8.60;;;8.20;;
21543;SDS011;10933;50.754;11.508;2022-08-23T03:53:06;14.10;;;8.40;;
21543;SDS011;10933;50.754;11.508;2022-08-23T03:55:33;8.90;;;8.50;;
21543;SDS011;10933;50.754;11.508;2022-08-23T03:57:59;9.20;;;8.70;;
21543;SDS011;10933;50.754;11.508;2022-08-23T04:00:25;9.13;;;8.57;;
21543;SDS011;10933;50.754;11.508;2022-08-23T04:02:52;9.87;;;8.80;;
21543;SDS011;10933;50.754;11.508;2022-08-23T04:05:18;8.47;;;8.07;;
21543;SDS011;10933;50.754;11.508;2022-08-23T04:07:44;8.83;;;8.20;;
21543;SDS011;10933;50.754;11.508;2022-08-23T04:10:11;8.40;;;8.00;;
21543;SDS011;10933;50.754;11.508;2022-08-23T04:12:39;8.70;;;8.30;;
21543;SDS011;10933;50.754;11.508;2022-08-23T04:15:06;8.47;;;7.87;;
21543;SDS011;10933;50.754;11.508;2022-08-23T04:17:33;9.30;;;8.73;;
21543;SDS011;10933;50.754;11.508;2022-08-23T04:20:00;9.50;;;8.93;;
21543;SDS011;10933;50.754;11.508;2022-08-23T04:22:28;10.20;;;9.60;;
21543;SDS011;10933;50.754;11.508;2022-08-23T04:24:54;8.83;;;8.43;;
21543;SDS011;10933;50.754;11.508;2022-08-23T04:27:21;9.57;;;9.17;;
21543;SDS011;10933;50.754;11.508;2022-08-23T04:29:47;10.53;;;9.80;;
21543;SDS011;10933;50.754;11.508;2022-08-23T04:32:14;10.10;;;9.17;;
21543;SDS011;10933;50.754;11.508;2022-08-23T04:34:40;9.57;;;9.17;;
21543;SDS011;10933;50.754;11.508;2022-08-23T04:37:07;10.07;;;9.30;;
21543;SDS011;10933;50.754;11.508;2022-08-23T04:39:34;10.33;;;9.50;;
21543;SDS011;10933;50.754;11.508;2022-08-23T04:42:22;9.73;;;9.23;;
21543;SDS011;10933;50.754;11.508;2022-08-23T04:44:49;9.93;;;9.10;;
21543;SDS011;10933;50.754;11.508;2022-08-23T04:47:15;10.73;;;10.03;;
21543;SDS011;10933;50.754;11.508;2022-08-23T04:49:42;9.57;;;9.17;;
21543;SDS011;10933;50.754;11.508;2022-08-23T04:52:08;9.93;;;9.13;;
21543;SDS011;10933;50.754;11.508;2022-08-23T04:54:35;10.73;;;10.03;;
21543;SDS011;10933;50.754;11.508;2022-08-23T04:57:01;10.67;;;10.00;;
21543;SDS011;10933;50.754;11.508;2022-08-23T04:59:27;11.33;;;10.83;;
21543;SDS011;10933;50.754;11.508;2022-08-23T05:01:53;11.50;;;10.73;;
21543;SDS011;10933;50.754;11.508;2022-08-23T05:04:20;13.13;;;12.20;;
21543;SDS011;10933;50.754;11.508;2022-08-23T05:06:46;11.93;;;11.27;;
21543;SDS011;10933;50.754;11.508;2022-08-23T05:09:12;11.73;;;10.90;;
21543;SDS011;10933;50.754;11.508;2022-08-23T05:11:39;11.67;;;10.77;;
21543;SDS011;10933;50.754;11.508;2022-08-23T05:14:05;10.60;;;10.10;;
21543;SDS011;10933;50.754;11.508;2022-08-23T05:16:31;11.97;;;11.03;;
21543;SDS011;10933;50.754;11.508;2022-08-23T05:18:57;11.63;;;11.13;;
21543;SDS011;10933;50.754;11.508;2022-08-23T05:21:24;11.93;;;11.03;;
21543;SDS011;10933;50.754;11.508;2022-08-23T05:23:50;12.03;;;11.43;;
21543;SDS011;10933;50.754;11.508;2022-08-23T05:26:17;10.80;;;10.20;;
21543;SDS011;10933;50.754;11.508;2022-08-23T05:28:44;11.77;;;11.07;;
21543;SDS011;10933;50.754;11.508;2022-08-23T05:33:40;11.00;;;10.40;;
21543;SDS011;10933;50.754;11.508;2022-08-23T05:36:09;9.47;;;8.97;;
21543;SDS011;10933;50.754;11.508;2022-08-23T05:38:36;10.17;;;9.67;;
21543;SDS011;10933;50.754;11.508;2022-08-23T05:41:03;11.07;;;10.25;;
21543;SDS011;10933;50.754;11.508;2022-08-23T05:43:30;9.45;;;8.88;;
21543;SDS011;10933;50.754;11.508;2022-08-23T05:46:01;10.90;;;10.20;;
21543;SDS011;10933;50.754;11.508;2022-08-23T05:48:30;8.30;;;7.30;;
21543;SDS011;10933;50.754;11.508;2022-08-23T05:51:10;7.57;;;6.97;;
21543;SDS011;10933;50.754;11.508;2022-08-23T05:53:48;8.02;;;6.57;;
21543;SDS011;10933;50.754;11.508;2022-08-23T05:56:25;6.60;;;6.30;;
21543;SDS011;10933;50.754;11.508;2022-08-23T05:58:54;7.15;;;6.60;;
21543;SDS011;10933;50.754;11.508;2022-08-23T06:01:23;7.22;;;6.38;;
21543;SDS011;10933;50.754;11.508;2022-08-23T06:03:50;6.50;;;6.10;;
21543;SDS011;10933;50.754;11.508;2022-08-23T06:06:16;8.27;;;5.70;;
21543;SDS011;10933;50.754;11.508;2022-08-23T06:08:44;6.22;;;5.70;;
21543;SDS011;10933;50.754;11.508;2022-08-23T06:11:19;6.38;;;5.88;;
21543;SDS011;10933;50.754;11.508;2022-08-23T06:13:48;6.55;;;6.00;;
21543;SDS011;10933;50.754;11.508;2022-08-23T06:16:18;6.03;;;5.65;;
21543;SDS011;10933;50.754;11.508;2022-08-23T06:18:47;6.05;;;5.70;;
21543;SDS011;10933;50.754;11.508;2022-08-23T06:21:13;6.45;;;5.95;;
21543;SDS011;10933;50.754;11.508;2022-08-23T06:23:40;6.53;;;6.22;;
21543;SDS011;10933;50.754;11.508;2022-08-23T06:26:20;7.10;;;6.70;;
21543;SDS011;10933;50.754;11.508;2022-08-23T06:28:55;7.43;;;6.88;;
21543;SDS011;10933;50.754;11.508;2022-08-23T06:31:23;7.32;;;6.93;;
21543;SDS011;10933;50.754;11.508;2022-08-23T06:34:11;6.82;;;6.40;;
21543;SDS011;10933;50.754;11.508;2022-08-23T06:36:39;7.50;;;6.85;;
21543;SDS011;10933;50.754;11.508;2022-08-23T06:39:07;11.75;;;6.70;;
21543;SDS011;10933;50.754;11.508;2022-08-23T06:41:34;7.70;;;7.10;;
21543;SDS011;10933;50.754;11.508;2022-08-23T06:44:02;8.10;;;7.50;;
21543;SDS011;10933;50.754;11.508;2022-08-23T06:46:29;7.00;;;6.60;;
21543;SDS011;10933;50.754;11.508;2022-08-23T06:48:56;7.05;;;6.55;;
21543;SDS011;10933;50.754;11.508;2022-08-23T06:51:26;7.18;;;6.78;;
21543;SDS011;10933;50.754;11.508;2022-08-23T06:53:57;7.55;;;6.82;;
21543;SDS011;10933;50.754;11.508;2022-08-23T06:56:24;7.38;;;6.78;;
21543;SDS011;10933;50.754;11.508;2022-08-23T06:58:52;6.38;;;5.95;;
21543;SDS011;10933;50.754;11.508;2022-08-23T07:01:20;7.25;;;6.60;;
21543;SDS011;10933;50.754;11.508;2022-08-23T07:03:55;6.18;;;5.88;;
21543;SDS011;10933;50.754;11.508;2022-08-23T07:06:22;6.13;;;5.82;;
21543;SDS011;10933;50.754;11.508;2022-08-23T07:08:49;5.75;;;5.50;;
21543;SDS011;10933;50.754;11.508;2022-08-23T07:11:16;5.32;;;5.07;;
21543;SDS011;10933;50.754;11.508;2022-08-23T07:13:42;5.63;;;5.13;;
21543;SDS011;10933;50.754;11.508;2022-08-23T07:16:09;6.22;;;4.60;;
21543;SDS011;10933;50.754;11.508;2022-08-23T07:18:36;6.70;;;4.75;;
21543;SDS011;10933;50.754;11.508;2022-08-23T07:21:03;4.88;;;4.38;;
21543;SDS011;10933;50.754;11.508;2022-08-23T07:23:30;7.45;;;4.00;;
21543;SDS011;10933;50.754;11.508;2022-08-23T07:26:01;4.03;;;3.83;;
21543;SDS011;10933;50.754;11.508;2022-08-23T07:28:32;6.38;;;4.15;;
21543;SDS011;10933;50.754;11.508;2022-08-23T07:31:05;7.00;;;4.05;;
21543;SDS011;10933;50.754;11.508;2022-08-23T07:33:35;9.32;;;3.85;;
21543;SDS011;10933;50.754;11.508;2022-08-23T07:36:01;12.57;;;3.80;;
21543;SDS011;10933;50.754;11.508;2022-08-23T07:38:29;3.58;;;3.35;;
21543;SDS011;10933;50.754;11.508;2022-08-23T07:40:55;5.13;;;3.72;;
21543;SDS011;10933;50.754;11.508;2022-08-23T07:43:22;5.40;;;3.90;;
21543;SDS011;10933;50.754;11.508;2022-08-23T07:45:49;7.20;;;2.83;;
21543;SDS011;10933;50.754;11.508;2022-08-23T07:48:15;8.52;;;2.88;;
21543;SDS011;10933;50.754;11.508;2022-08-23T07:50:41;3.53;;;3.20;;
21543;SDS011;10933;50.754;11.508;2022-08-23T07:53:14;3.10;;;2.90;;
21543;SDS011;10933;50.754;11.508;2022-08-23T07:55:40;3.83;;;2.40;;
21543;SDS011;10933;50.754;11.508;2022-08-23T07:58:07;2.70;;;2.50;;
21543;SDS011;10933;50.754;11.508;2022-08-23T08:00:33;2.72;;;2.20;;
21543;SDS011;10933;50.754;11.508;2022-08-23T08:02:59;2.97;;;2.67;;
21543;SDS011;10933;50.754;11.508;2022-08-23T08:05:25;2.67;;;2.13;;
21543;SDS011;10933;50.754;11.508;2022-08-23T08:07:51;2.33;;;1.90;;
21543;SDS011;10933;50.754;11.508;2022-08-23T08:10:18;2.97;;;2.15;;
21543;SDS011;10933;50.754;11.508;2022-08-23T08:12:44;2.10;;;1.70;;
21543;SDS011;10933;50.754;11.508;2022-08-23T08:15:10;1.88;;;1.55;;
21543;SDS011;10933;50.754;11.508;2022-08-23T08:17:37;1.25;;;1.15;;
21543;SDS011;10933;50.754;11.508;2022-08-23T08:20:03;2.13;;;1.20;;
21543;SDS011;10933;50.754;11.508;2022-08-23T08:22:30;1.25;;;1.10;;
21543;SDS011;10933;50.754;11.508;2022-08-23T08:24:56;3.10;;;1.13;;
21543;SDS011;10933;50.754;11.508;2022-08-23T08:27:22;1.20;;;1.10;;
21543;SDS011;10933;50.754;11.508;2022-08-23T08:29:48;2.38;;;1.20;;
21543;SDS011;10933;50.754;11.508;2022-08-23T08:32:14;1.55;;;1.38;;
21543;SDS011;10933;50.754;11.508;2022-08-23T08:34:41;1.23;;;1.13;;
21543;SDS011;10933;50.754;11.508;2022-08-23T08:37:07;1.50;;;1.40;;
21543;SDS011;10933;50.754;11.508;2022-08-23T08:39:33;2.90;;;1.70;;
21543;SDS011;10933;50.754;11.508;2022-08-23T08:53:12;2.33;;;1.42;;
21543;SDS011;10933;50.754;11.508;2022-08-23T08:55:29;5.47;;;1.23;;
21543;SDS011;10933;50.754;11.508;2022-08-23T08:58:05;1.52;;;1.42;;
21543;SDS011;10933;50.754;11.508;2022-08-23T09:00:38;1.73;;;1.10;;
21543;SDS011;10933;50.754;11.508;2022-08-23T09:03:07;0.85;;;0.85;;
21543;SDS011;10933;50.754;11.508;2022-08-23T09:05:38;1.52;;;1.10;;
21543;SDS011;10933;50.754;11.508;2022-08-23T09:09:07;2.95;;;1.27;;
21543;SDS011;10933;50.754;11.508;2022-08-23T09:16:50;1.40;;;0.95;;
21543;SDS011;10933;50.754;11.508;2022-08-23T09:19:20;0.82;;;0.80;;
21543;SDS011;10933;50.754;11.508;2022-08-23T09:21:58;3.10;;;1.00;;
21543;SDS011;10933;50.754;11.508;2022-08-23T09:24:28;2.13;;;0.98;;
21543;SDS011;10933;50.754;11.508;2022-08-23T09:26:55;0.95;;;0.80;;
21543;SDS011;10933;50.754;11.508;2022-08-23T09:29:25;1.08;;;0.90;;
21543;SDS011;10933;50.754;11.508;2022-08-23T09:32:01;1.90;;;0.80;;
21543;SDS011;10933;50.754;11.508;2022-08-23T09:37:20;3.25;;;1.27;;
21543;SDS011;10933;50.754;11.508;2022-08-23T09:39:51;1.10;;;0.88;;
21543;SDS011;10933;50.754;11.508;2022-08-23T09:42:39;1.10;;;1.00;;
21543;SDS011;10933;50.754;11.508;2022-08-23T09:45:23;2.20;;;1.00;;
21543;SDS011;10933;50.754;11.508;2022-08-23T09:47:50;0.70;;;0.70;;
21543;SDS011;10933;50.754;11.508;2022-08-23T09:52:54;0.90;;;0.90;;
21543;SDS011;10933;50.754;11.508;2022-08-23T09:55:33;1.00;;;0.90;;
21543;SDS011;10933;50.754;11.508;2022-08-23T09:58:03;1.08;;;0.80;;
21543;SDS011;10933;50.754;11.508;2022-08-23T10:00:40;0.75;;;0.70;;
21543;SDS011;10933;50.754;11.508;2022-08-23T10:03:27;1.80;;;0.80;;
21543;SDS011;10933;50.754;11.508;2022-08-23T10:05:54;0.88;;;0.60;;
21543;SDS011;10933;50.754;11.508;2022-08-23T10:08:24;1.05;;;0.63;;
21543;SDS011;10933;50.754;11.508;2022-08-23T10:10:53;0.73;;;0.70;;
21543;SDS011;10933;50.754;11.508;2022-08-23T10:13:26;1.15;;;0.95;;
21543;SDS011;10933;50.754;11.508;2022-08-23T10:30:02;0.95;;;0.85;;
21543;SDS011;10933;50.754;11.508;2022-08-23T10:38:01;1.10;;;0.98;;
21543;SDS011;10933;50.754;11.508;2022-08-23T10:45:39;0.80;;;0.80;;
21543;SDS011;10933;50.754;11.508;2022-08-23T10:51:17;0.85;;;0.73;;
21543;SDS011;10933;50.754;11.508;2022-08-23T10:53:57;0.85;;;0.65;;
21543;SDS011;10933;50.754;11.508;2022-08-23T10:56:36;0.80;;;0.80;;
21543;SDS011;10933;50.754;11.508;2022-08-23T11:04:54;1.00;;;0.88;;
21543;SDS011;10933;50.754;11.508;2022-08-23T11:18:47;2.35;;;0.88;;
21543;SDS011;10933;50.754;11.508;2022-08-23T11:26:10;1.15;;;0.80;;
21543;SDS011;10933;50.754;11.508;2022-08-23T11:31:41;0.80;;;0.70;;
21543;SDS011;10933;50.754;11.508;2022-08-23T11:34:20;0.80;;;0.77;;
21543;SDS011;10933;50.754;11.508;2022-08-23T11:42:22;0.90;;;0.90;;
21543;SDS011;10933;50.754;11.508;2022-08-23T11:53:17;2.30;;;0.90;;
21543;SDS011;10933;50.754;11.508;2022-08-23T11:55:56;0.80;;;0.80;;
21543;SDS011;10933;50.754;11.508;2022-08-23T12:01:32;0.82;;;0.80;;
21543;SDS011;10933;50.754;11.508;2022-08-23T12:04:02;3.85;;;1.00;;
21543;SDS011;10933;50.754;11.508;2022-08-23T12:06:47;0.80;;;0.80;;
21543;SDS011;10933;50.754;11.508;2022-08-23T12:16:56;4.97;;;1.13;;
21543;SDS011;10933;50.754;11.508;2022-08-23T12:19:31;2.10;;;1.00;;
21543;SDS011;10933;50.754;11.508;2022-08-23T12:22:05;1.10;;;0.90;;
21543;SDS011;10933;50.754;11.508;2022-08-23T12:27:22;1.42;;;1.00;;
21543;SDS011;10933;50.754;11.508;2022-08-23T12:36:06;0.98;;;0.70;;
21543;SDS011;10933;50.754;11.508;2022-08-23T12:41:19;1.10;;;1.00;;
21543;SDS011;10933;50.754;11.508;2022-08-23T12:43:54;1.45;;;1.02;;
21543;SDS011;10933;50.754;11.508;2022-08-23T12:46:33;11.15;;;1.60;;
21543;SDS011;10933;50.754;11.508;2022-08-23T12:49:05;7.55;;;1.25;;
21543;SDS011;10933;50.754;11.508;2022-08-23T12:51:49;7.20;;;1.40;;
21543;SDS011;10933;50.754;11.508;2022-08-23T12:54:32;1.55;;;1.10;;
21543;SDS011;10933;50.754;11.508;2022-08-23T12:57:01;2.20;;;1.10;;
21543;SDS011;10933;50.754;11.508;2022-08-23T12:59:36;2.15;;;1.20;;
21543;SDS011;10933;50.754;11.508;2022-08-23T13:02:10;1.15;;;1.05;;
21543;SDS011;10933;50.754;11.508;2022-08-23T13:04:57;3.83;;;1.10;;
21543;SDS011;10933;50.754;11.508;2022-08-23T13:07:30;1.88;;;1.10;;
21543;SDS011;10933;50.754;11.508;2022-08-23T13:09:57;1.17;;;1.08;;
21543;SDS011;10933;50.754;11.508;2022-08-23T13:12:23;1.73;;;1.23;;
21543;SDS011;10933;50.754;11.508;2022-08-23T13:14:52;3.40;;;1.10;;
21543;SDS011;10933;50.754;11.508;2022-08-23T13:19:53;1.27;;;1.17;;
21543;SDS011;10933;50.754;11.508;2022-08-23T13:22:26;1.92;;;1.20;;
21543;SDS011;10933;50.754;11.508;2022-08-23T13:27:36;1.48;;;1.38;;
21543;SDS011;10933;50.754;11.508;2022-08-23T13:32:38;4.68;;;1.48;;
21543;SDS011;10933;50.754;11.508;2022-08-23T13:40:40;1.63;;;1.40;;
21543;SDS011;10933;50.754;11.508;2022-08-23T13:46:18;2.53;;;1.30;;
21543;SDS011;10933;50.754;11.508;2022-08-23T13:51:42;1.02;;;1.02;;
21543;SDS011;10933;50.754;11.508;2022-08-23T13:54:24;1.55;;;1.42;;
21543;SDS011;10933;50.754;11.508;2022-08-23T13:56:53;4.82;;;1.00;;
21543;SDS011;10933;50.754;11.508;2022-08-23T14:01:58;0.90;;;0.90;;
21543;SDS011;10933;50.754;11.508;2022-08-23T14:04:26;2.10;;;1.30;;
21543;SDS011;10933;50.754;11.508;2022-08-23T14:06:53;0.98;;;0.98;;
21543;SDS011;10933;50.754;11.508;2022-08-23T14:09:19;1.48;;;1.10;;
21543;SDS011;10933;50.754;11.508;2022-08-23T14:11:46;1.08;;;1.00;;
21543;SDS011;10933;50.754;11.508;2022-08-23T14:14:18;1.25;;;1.15;;
21543;SDS011;10933;50.754;11.508;2022-08-23T14:16:44;1.20;;;1.10;;
21543;SDS011;10933;50.754;11.508;2022-08-23T14:19:11;1.42;;;1.30;;
21543;SDS011;10933;50.754;11.508;2022-08-23T14:21:37;1.88;;;1.35;;
21543;SDS011;10933;50.754;11.508;2022-08-23T14:24:04;14.40;;;1.48;;
21543;SDS011;10933;50.754;11.508;2022-08-23T14:26:30;3.30;;;2.10;;
21543;SDS011;10933;50.754;11.508;2022-08-23T14:28:57;2.22;;;1.38;;
21543;SDS011;10933;50.754;11.508;2022-08-23T14:31:23;1.75;;;1.40;;
21543;SDS011;10933;50.754;11.508;2022-08-23T14:33:49;6.10;;;1.38;;
21543;SDS011;10933;50.754;11.508;2022-08-23T14:36:15;3.80;;;1.20;;
21543;SDS011;10933;50.754;11.508;2022-08-23T14:38:42;1.55;;;1.45;;
21543;SDS011;10933;50.754;11.508;2022-08-23T14:41:09;1.65;;;1.30;;
21543;SDS011;10933;50.754;11.508;2022-08-23T14:43:40;1.20;;;1.10;;
21543;SDS011;10933;50.754;11.508;2022-08-23T14:46:07;1.45;;;1.35;;
21543;SDS011;10933;50.754;11.508;2022-08-23T14:48:33;3.20;;;1.40;;
21543;SDS011;10933;50.754;11.508;2022-08-23T14:51:00;2.05;;;1.23;;
21543;SDS011;10933;50.754;11.508;2022-08-23T14:53:28;1.13;;;1.02;;
21543;SDS011;10933;50.754;11.508;2022-08-23T14:55:56;1.88;;;1.40;;
21543;SDS011;10933;50.754;11.508;2022-08-23T14:58:22;7.57;;;1.30;;
21543;SDS011;10933;50.754;11.508;2022-08-23T15:00:50;1.10;;;1.00;;
21543;SDS011;10933;50.754;11.508;2022-08-23T15:03:22;1.38;;;1.27;;
21543;SDS011;10933;50.754;11.508;2022-08-23T15:05:50;1.33;;;1.23;;
21543;SDS011;10933;50.754;11.508;2022-08-23T15:08:17;4.75;;;1.25;;
21543;SDS011;10933;50.754;11.508;2022-08-23T15:10:44;1.30;;;1.20;;
21543;SDS011;10933;50.754;11.508;2022-08-23T15:13:10;1.70;;;1.40;;
21543;SDS011;10933;50.754;11.508;2022-08-23T15:15:36;1.33;;;1.23;;
21543;SDS011;10933;50.754;11.508;2022-08-23T15:18:05;1.70;;;1.60;;
21543;SDS011;10933;50.754;11.508;2022-08-23T15:20:34;1.30;;;1.20;;
21543;SDS011;10933;50.754;11.508;2022-08-23T15:23:02;1.48;;;1.35;;
21543;SDS011;10933;50.754;11.508;2022-08-23T15:25:30;1.92;;;1.73;;
21543;SDS011;10933;50.754;11.508;2022-08-23T15:27:59;3.50;;;1.65;;
21543;SDS011;10933;50.754;11.508;2022-08-23T15:30:26;2.15;;;1.42;;
21543;SDS011;10933;50.754;11.508;2022-08-23T15:32:53;2.05;;;1.30;;
21543;SDS011;10933;50.754;11.508;2022-08-23T15:35:20;1.50;;;1.40;;
21543;SDS011;10933;50.754;11.508;2022-08-23T15:37:47;2.80;;;1.80;;
21543;SDS011;10933;50.754;11.508;2022-08-23T15:40:14;12.85;;;2.20;;
21543;SDS011;10933;50.754;11.508;2022-08-23T15:42:40;1.88;;;1.73;;
21543;SDS011;10933;50.754;11.508;2022-08-23T15:45:06;2.42;;;1.60;;
21543;SDS011;10933;50.754;11.508;2022-08-23T15:47:34;1.73;;;1.63;;
21543;SDS011;10933;50.754;11.508;2022-08-23T15:50:09;2.30;;;1.52;;
21543;SDS011;10933;50.754;11.508;2022-08-23T15:52:36;1.85;;;1.55;;
21543;SDS011;10933;50.754;11.508;2022-08-23T15:55:02;2.22;;;1.52;;
21543;SDS011;10933;50.754;11.508;2022-08-23T15:57:30;1.90;;;1.35;;
21543;SDS011;10933;50.754;11.508;2022-08-23T16:00:00;1.73;;;1.63;;
21543;SDS011;10933;50.754;11.508;2022-08-23T16:02:28;2.65;;;1.40;;
21543;SDS011;10933;50.754;11.508;2022-08-23T16:04:54;1.65;;;1.40;;
21543;SDS011;10933;50.754;11.508;2022-08-23T16:07:21;1.70;;;1.48;;
21543;SDS011;10933;50.754;11.508;2022-08-23T16:09:47;1.52;;;1.30;;
21543;SDS011;10933;50.754;11.508;2022-08-23T16:12:14;1.30;;;1.20;;
21543;SDS011;10933;50.754;11.508;2022-08-23T16:14:40;1.70;;;1.60;;
21543;SDS011;10933;50.754;11.508;2022-08-23T16:17:07;2.13;;;1.85;;
21543;SDS011;10933;50.754;11.508;2022-08-23T16:19:33;3.78;;;1.70;;
21543;SDS011;10933;50.754;11.508;2022-08-23T16:22:00;1.60;;;1.30;;
21543;SDS011;10933;50.754;11.508;2022-08-23T16:24:27;2.55;;;1.40;;
21543;SDS011;10933;50.754;11.508;2022-08-23T16:26:53;1.55;;;1.45;;
21543;SDS011;10933;50.754;11.508;2022-08-23T16:29:20;1.60;;;1.50;;
21543;SDS011;10933;50.754;11.508;2022-08-23T16:31:47;2.30;;;1.60;;
21543;SDS011;10933;50.754;11.508;2022-08-23T16:34:17;2.10;;;1.70;;
21543;SDS011;10933;50.754;11.508;2022-08-23T16:36:46;3.83;;;2.00;;
21543;SDS011;10933;50.754;11.508;2022-08-23T16:39:15;1.90;;;1.80;;
21543;SDS011;10933;50.754;11.508;2022-08-23T16:41:42;2.00;;;1.80;;
21543;SDS011;10933;50.754;11.508;2022-08-23T16:44:08;2.70;;;1.90;;
21543;SDS011;10933;50.754;11.508;2022-08-23T16:46:34;2.72;;;1.70;;
21543;SDS011;10933;50.754;11.508;2022-08-23T16:49:03;2.15;;;1.95;;
21543;SDS011;10933;50.754;11.508;2022-08-23T16:51:29;2.67;;;2.20;;
21543;SDS011;10933;50.754;11.508;2022-08-23T16:53:56;6.32;;;2.10;;
21543;SDS011;10933;50.754;11.508;2022-08-23T16:56:22;1.90;;;1.80;;
21543;SDS011;10933;50.754;11.508;2022-08-23T16:58:48;4.47;;;1.70;;
21543;SDS011;10933;50.754;11.508;2022-08-23T17:01:15;4.40;;;2.30;;
21543;SDS011;10933;50.754;11.508;2022-08-23T17:03:44;2.20;;;2.00;;
21543;SDS011;10933;50.754;11.508;2022-08-23T17:06:12;1.90;;;1.80;;
21543;SDS011;10933;50.754;11.508;2022-08-23T17:08:39;2.70;;;2.30;;